Time;durP1;ratioP1;P1;durP2;ratioP2;P2;SDS_P1;SDS_P2;PMS_P1;PMS_P2;Temp;Humidity;BMP_temperature;BMP_pressure;BME280_temperature;BME280_humidity;BME280_pressure;Samples;Min_cycle;Max_cycle;Signal;HPM_P1;HPM_P2
2022/10/20 00:01:59;;;;;;;10.55;9.48;;;;;;;14.98;100.00;96882.94;5083548;28;20199;-58
2022/10/20 00:04:28;;;;;;;12.23;9.40;;;;;;;14.94;100.00;96880.63;5083462;28;20289;-59
2022/10/20 00:06:55;;;;;;;11.10;9.20;;;;;;;14.95;100.00;96878.75;5083355;28;20202;-59
2022/10/20 00:09:21;;;;;;;9.85;8.88;;;;;;;14.93;100.00;96886.94;5082896;28;20214;-59
2022/10/20 00:11:48;;;;;;;12.52;10.70;;;;;;;14.93;100.00;96870.97;5082959;28;20264;-59
2022/10/20 00:14:16;;;;;;;12.10;10.70;;;;;;;14.94;100.00;96872.63;5082458;28;20730;-60
2022/10/20 00:16:43;;;;;;;12.35;10.00;;;;;;;14.92;100.00;96879.94;5082016;28;20282;-59
2022/10/20 00:19:09;;;;;;;15.50;10.60;;;;;;;14.93;100.00;96876.28;5082380;28;20222;-59
2022/10/20 00:21:36;;;;;;;13.23;10.73;;;;;;;14.92;100.00;96884.41;5082927;28;20294;-58
2022/10/20 00:24:03;;;;;;;11.48;10.13;;;;;;;14.92;100.00;96871.94;5082747;28;20317;-59
2022/10/20 00:26:31;;;;;;;11.95;10.80;;;;;;;14.94;100.00;96871.78;5082368;28;20340;-58
2022/10/20 00:28:58;;;;;;;13.45;10.02;;;;;;;14.94;100.00;96871.78;5082340;28;20313;-60
2022/10/20 00:31:26;;;;;;;12.77;11.18;;;;;;;14.93;100.00;96865.63;5082734;28;20610;-58
2022/10/20 00:33:53;;;;;;;14.95;11.15;;;;;;;14.95;100.00;96862.78;5082665;28;20225;-59
2022/10/20 00:36:22;;;;;;;12.55;10.45;;;;;;;14.95;100.00;96855.63;5083130;28;20282;-58
2022/10/20 00:38:48;;;;;;;12.05;10.55;;;;;;;14.99;100.00;96863.28;5082471;28;20282;-59
2022/10/20 00:41:16;;;;;;;12.70;11.20;;;;;;;14.97;100.00;96863.47;5082785;28;20226;-60
2022/10/20 00:43:45;;;;;;;12.13;10.88;;;;;;;14.96;100.00;96859.13;5083102;28;20289;-58
2022/10/20 00:46:20;;;;;;;13.50;11.63;;;;;;;14.92;100.00;96858.63;5082414;28;20586;-59
2022/10/20 00:48:51;;;;;;;11.05;9.95;;;;;;;14.90;100.00;96860.63;5081706;28;20664;-59
2022/10/20 00:51:21;;;;;;;13.15;10.05;;;;;;;14.93;100.00;96860.31;5082607;28;20237;-60
2022/10/20 00:53:49;;;;;;;13.75;11.40;;;;;;;14.92;100.00;96857.78;5082244;28;20290;-60
2022/10/20 00:56:15;;;;;;;11.98;10.85;;;;;;;14.93;100.00;96852.31;5082354;28;20280;-59
2022/10/20 00:58:44;;;;;;;13.70;11.32;;;;;;;14.92;100.00;96847.13;5083095;28;20233;-59
2022/10/20 01:01:11;;;;;;;12.02;10.88;;;;;;;14.91;100.00;96846.31;5082558;28;20229;-58
2022/10/20 01:03:44;;;;;;;14.43;10.73;;;;;;;14.93;100.00;96839.00;5082098;28;20198;-58
2022/10/20 01:06:13;;;;;;;12.73;11.50;;;;;;;14.91;100.00;96848.97;5082641;28;20298;-60
2022/10/20 01:08:40;;;;;;;13.13;10.67;;;;;;;14.92;100.00;96842.66;5082096;28;20238;-59
2022/10/20 01:11:15;;;;;;;13.65;11.25;;;;;;;14.92;100.00;96847.97;5081886;28;20281;-58
2022/10/20 01:13:48;;;;;;;13.65;10.77;;;;;;;14.92;100.00;96849.81;5082085;28;20268;-59
2022/10/20 01:16:23;;;;;;;12.27;10.30;;;;;;;14.92;100.00;96844.47;5082401;28;20298;-58
2022/10/20 01:18:57;;;;;;;13.03;11.73;;;;;;;14.91;100.00;96833.00;5080855;28;20598;-58
2022/10/20 01:21:53;;;;;;;13.77;11.05;;;;;;;14.89;100.00;96827.00;5081990;28;20202;-58
2022/10/20 01:24:32;;;;;;;14.88;12.43;;;;;;;14.90;100.00;96828.69;5081782;28;20282;-58
2022/10/20 01:27:25;;;;;;;16.77;11.98;;;;;;;14.89;100.00;96821.69;5081146;28;20692;-59
2022/10/20 01:29:57;;;;;;;12.27;10.98;;;;;;;14.91;100.00;96824.19;5081174;28;20242;-59
2022/10/20 01:32:28;;;;;;;11.68;10.43;;;;;;;14.91;100.00;96819.69;5081236;28;20293;-58
2022/10/20 01:35:00;;;;;;;15.50;11.43;;;;;;;14.92;100.00;96816.03;5081569;28;20193;-60
2022/10/20 01:37:29;;;;;;;13.20;11.33;;;;;;;14.93;100.00;96806.22;5081720;28;20276;-59
2022/10/20 01:40:01;;;;;;;12.68;11.38;;;;;;;14.93;100.00;96809.72;5081659;28;20206;-59
2022/10/20 01:42:29;;;;;;;14.82;13.25;;;;;;;14.93;100.00;96803.53;5081891;28;20293;-58
2022/10/20 01:44:58;;;;;;;15.97;14.07;;;;;;;14.91;100.00;96809.03;5081998;28;20210;-58
2022/10/20 01:47:26;;;;;;;14.55;13.07;;;;;;;14.92;100.00;96809.84;5082608;28;20284;-58
2022/10/20 01:49:55;;;;;;;15.20;13.60;;;;;;;14.91;100.00;96808.22;5082480;28;20368;-58
2022/10/20 01:52:23;;;;;;;15.70;14.20;;;;;;;14.94;100.00;96814.03;5083320;28;20198;-58
2022/10/20 01:54:51;;;;;;;15.43;13.88;;;;;;;14.92;100.00;96810.69;5084137;28;20221;-58
2022/10/20 01:57:32;;;;;;;14.38;12.98;;;;;;;14.94;100.00;96805.22;5083068;28;20206;-58
2022/10/20 02:00:07;;;;;;;16.08;14.27;;;;;;;14.93;100.00;96796.41;5082328;28;20225;-58
2022/10/20 02:02:48;;;;;;;14.05;12.48;;;;;;;14.95;100.00;96791.72;5082390;28;20232;-58
2022/10/20 02:05:40;;;;;;;15.50;12.98;;;;;;;14.93;100.00;96787.56;5082459;28;20198;-59
2022/10/20 02:08:12;;;;;;;14.27;12.70;;;;;;;14.95;100.00;96790.88;5082990;28;20234;-59
2022/10/20 02:10:44;;;;;;;13.93;12.53;;;;;;;14.96;100.00;96789.91;5082342;28;20246;-59
2022/10/20 02:13:13;;;;;;;15.93;12.45;;;;;;;15.01;100.00;96786.75;5096876;28;20201;-59
2022/10/20 02:15:43;;;;;;;15.13;12.00;;;;;;;14.97;100.00;96785.41;5097932;28;20284;-59
2022/10/20 02:18:11;;;;;;;14.67;11.67;;;;;;;14.95;100.00;96788.22;5093704;28;20634;-58
2022/10/20 02:20:38;;;;;;;15.17;12.47;;;;;;;14.97;100.00;96785.41;5081673;28;20537;-59
2022/10/20 02:23:06;;;;;;;13.35;12.05;;;;;;;14.95;100.00;96778.41;5081351;28;20217;-58
2022/10/20 02:25:33;;;;;;;15.25;12.20;;;;;;;14.95;100.00;96777.56;5080639;28;20293;-58
2022/10/20 02:28:00;;;;;;;13.70;12.35;;;;;;;14.95;100.00;96778.41;5081233;28;20287;-58
2022/10/20 02:30:29;;;;;;;13.93;12.52;;;;;;;14.97;100.00;96774.75;5080653;28;20308;-59
2022/10/20 02:32:56;;;;;;;21.58;16.05;;;;;;;14.91;100.00;96774.41;5080761;28;20211;-58
2022/10/20 02:35:27;;;;;;;16.20;14.60;;;;;;;14.96;100.00;96784.56;5082435;28;20237;-59
2022/10/20 02:37:54;;;;;;;15.32;13.80;;;;;;;14.97;100.00;96785.41;5080737;28;20301;-59
2022/10/20 02:40:21;;;;;;;14.70;12.75;;;;;;;14.93;100.00;96783.06;5082809;28;20296;-58
2022/10/20 02:42:48;;;;;;;13.70;12.07;;;;;;;14.95;100.00;96788.22;5084976;28;20280;-59
2022/10/20 02:45:15;;;;;;;13.55;11.98;;;;;;;14.92;100.00;96777.91;5084668;28;20206;-59
2022/10/20 02:47:43;;;;;;;16.92;12.75;;;;;;;14.91;100.00;96781.59;5084654;28;20619;-59
2022/10/20 02:50:10;;;;;;;13.73;12.32;;;;;;;14.92;100.00;96781.41;5083988;28;20237;-60
2022/10/20 02:52:36;;;;;;;14.57;12.35;;;;;;;14.90;100.00;96786.09;5084800;28;20210;-60
2022/10/20 02:55:04;;;;;;;13.25;11.63;;;;;;;14.90;100.00;96786.09;5084863;28;20554;-58
2022/10/20 02:57:31;;;;;;;13.75;12.35;;;;;;;14.90;100.00;96775.44;5084645;28;20285;-58
2022/10/20 02:59:57;;;;;;;14.45;12.68;;;;;;;14.89;100.00;96779.09;5084280;28;20689;-57
2022/10/20 03:02:24;;;;;;;15.55;12.13;;;;;;;14.88;100.00;96777.41;5084923;28;20198;-58
2022/10/20 03:04:52;;;;;;;14.55;12.73;;;;;;;14.90;100.00;96782.59;5083450;28;20207;-59
2022/10/20 03:07:19;;;;;;;17.15;13.93;;;;;;;14.88;100.00;96777.41;5084409;28;20236;-58
2022/10/20 03:09:45;;;;;;;16.15;14.48;;;;;;;14.86;100.00;96774.09;5083531;28;20690;-59
2022/10/20 03:12:12;;;;;;;15.38;13.93;;;;;;;14.85;100.00;96783.06;5084207;28;20306;-58
2022/10/20 03:14:40;;;;;;;17.55;14.75;;;;;;;14.86;100.00;96800.72;5083994;28;20612;-58
2022/10/20 03:17:07;;;;;;;20.15;14.35;;;;;;;14.87;100.00;96802.38;5084292;28;20263;-58
2022/10/20 03:19:35;;;;;;;15.45;13.85;;;;;;;14.87;100.00;96801.56;5083904;28;20286;-59
2022/10/20 03:22:03;;;;;;;18.52;15.07;;;;;;;14.97;100.00;96806.72;5083685;28;20209;-58
2022/10/20 03:24:29;;;;;;;16.92;14.02;;;;;;;14.90;100.00;96806.53;5084493;28;20208;-58
2022/10/20 03:26:56;;;;;;;19.80;14.67;;;;;;;14.82;100.00;96802.03;5083896;28;20206;-59
2022/10/20 03:29:25;;;;;;;16.15;14.48;;;;;;;14.83;100.00;96795.72;5083583;28;20705;-58
2022/10/20 03:31:53;;;;;;;16.50;14.13;;;;;;;14.84;100.00;96784.06;5083680;28;20259;-60
2022/10/20 03:34:19;;;;;;;15.67;14.07;;;;;;;14.85;100.00;96769.75;5083375;28;20265;-59
2022/10/20 03:36:46;;;;;;;14.77;13.30;;;;;;;14.85;100.00;96764.44;5084091;28;20261;-58
2022/10/20 03:39:14;;;;;;;15.65;14.05;;;;;;;14.85;100.00;96771.59;5083536;28;20301;-59
2022/10/20 03:41:41;;;;;;;18.70;16.73;;;;;;;14.84;100.00;96776.06;5083387;28;20277;-58
2022/10/20 03:44:09;;;;;;;18.50;15.47;;;;;;;14.86;100.00;96778.59;5083128;28;20875;-58
2022/10/20 03:46:36;;;;;;;17.10;15.40;;;;;;;14.86;100.00;96779.41;5083573;28;20301;-58
2022/10/20 03:49:03;;;;;;;16.92;15.13;;;;;;;14.85;100.00;96783.06;5082936;28;20329;-58
2022/10/20 03:51:29;;;;;;;18.35;15.85;;;;;;;14.87;100.00;96788.25;5082274;28;20313;-59
2022/10/20 03:53:56;;;;;;;16.42;14.75;;;;;;;14.85;100.00;96788.41;5084721;28;20213;-59
2022/10/20 03:56:24;;;;;;;19.35;14.77;;;;;;;14.88;100.00;96776.56;5087226;28;20300;-58
2022/10/20 03:58:51;;;;;;;16.27;14.70;;;;;;;14.87;100.00;96774.94;5086895;28;20223;-59
2022/10/20 04:01:21;;;;;;;23.15;15.80;;;;;;;14.88;100.00;96774.75;5085780;28;20285;-59
2022/10/20 04:03:47;;;;;;;22.58;18.38;;;;;;;14.87;100.00;96770.44;5085085;28;20297;-59
2022/10/20 04:06:14;;;;;;;20.63;18.40;;;;;;;14.86;100.00;96773.25;5085438;28;20579;-58
2022/10/20 04:08:41;;;;;;;18.73;16.80;;;;;;;14.88;100.00;96772.09;5084830;28;20277;-59
2022/10/20 04:11:09;;;;;;;20.40;17.20;;;;;;;14.87;100.00;96769.59;5084562;28;20666;-58
2022/10/20 04:13:37;;;;;;;21.43;16.17;;;;;;;14.87;100.00;96772.25;5082942;28;20535;-58
2022/10/20 04:16:04;;;;;;;19.03;16.20;;;;;;;14.88;100.00;96761.44;5082833;28;20281;-59
2022/10/20 04:18:31;;;;;;;22.53;16.70;;;;;;;14.87;100.00;96765.13;5082538;28;20711;-58
2022/10/20 04:20:57;;;;;;;17.77;15.68;;;;;;;14.85;100.00;96759.09;5082333;28;20821;-58
2022/10/20 04:23:24;;;;;;;16.87;15.27;;;;;;;14.88;100.00;96764.09;5082941;28;20206;-58
2022/10/20 04:25:51;;;;;;;19.33;17.03;;;;;;;14.88;100.00;96756.09;5082494;28;20292;-60
2022/10/20 04:28:20;;;;;;;26.00;21.57;;;;;;;14.86;100.00;96760.78;5082704;28;20293;-60
2022/10/20 04:30:48;;;;;;;22.45;20.05;;;;;;;14.88;100.00;96749.94;5082333;28;20222;-59
2022/10/20 04:33:15;;;;;;;20.52;17.85;;;;;;;14.86;100.00;96739.47;5082610;28;20304;-59
2022/10/20 04:35:41;;;;;;;18.77;16.80;;;;;;;14.87;100.00;96727.00;5082030;28;20285;-59
2022/10/20 04:38:08;;;;;;;19.88;17.75;;;;;;;14.88;100.00;96721.50;5088130;28;20216;-59
2022/10/20 04:40:36;;;;;;;19.27;17.30;;;;;;;14.90;100.00;96727.50;5096197;28;20226;-57
2022/10/20 04:43:03;;;;;;;22.43;18.10;;;;;;;14.88;100.00;96728.63;5088154;28;20278;-58
2022/10/20 04:45:29;;;;;;;21.38;19.15;;;;;;;14.88;100.00;96732.13;5083824;28;20281;-59
2022/10/20 04:48:01;;;;;;;19.77;17.43;;;;;;;14.89;100.00;96720.50;5082792;28;20289;-58
2022/10/20 04:50:27;;;;;;;20.90;17.67;;;;;;;14.89;100.00;96720.50;5081949;28;20724;-59
2022/10/20 04:52:54;;;;;;;22.60;18.63;;;;;;;14.91;100.00;96734.47;5082110;28;20685;-59
2022/10/20 04:55:20;;;;;;;20.30;18.30;;;;;;;14.90;100.00;96722.16;5082075;28;20289;-59
2022/10/20 04:57:47;;;;;;;23.40;18.63;;;;;;;14.88;100.00;96718.81;5082240;28;20293;-59
2022/10/20 05:00:15;;;;;;;23.97;18.00;;;;;;;14.89;100.00;96719.66;5081582;28;20205;-59
2022/10/20 05:02:41;;;;;;;19.83;17.70;;;;;;;14.90;100.00;96716.00;5081826;28;20310;-59
2022/10/20 05:05:10;;;;;;;20.15;17.98;;;;;;;14.90;100.00;96711.53;5081572;28;20305;-59
2022/10/20 05:07:36;;;;;;;22.03;17.67;;;;;;;14.92;100.00;96714.84;5081814;28;20289;-59
2022/10/20 05:10:04;;;;;;;23.20;19.87;;;;;;;14.90;100.00;96710.69;5081351;28;20206;-59
2022/10/20 05:12:30;;;;;;;23.57;18.87;;;;;;;14.90;100.00;96711.53;5081581;28;20282;-58
2022/10/20 05:14:57;;;;;;;20.52;18.50;;;;;;;14.93;100.00;96705.00;5081822;28;20293;-59
2022/10/20 05:17:24;;;;;;;24.17;18.73;;;;;;;14.94;100.00;96715.50;5081866;28;20289;-58
2022/10/20 05:19:50;;;;;;;19.35;17.05;;;;;;;14.92;100.00;96709.50;5081694;28;20293;-59
2022/10/20 05:22:18;;;;;;;24.27;19.83;;;;;;;14.90;100.00;96706.19;5082060;28;20284;-59
2022/10/20 05:24:45;;;;;;;23.10;18.20;;;;;;;14.91;100.00;96697.19;5082151;28;20233;-59
2022/10/20 05:27:12;;;;;;;25.02;20.02;;;;;;;14.91;100.00;96691.84;5081645;28;20691;-59
2022/10/20 05:29:38;;;;;;;21.88;18.50;;;;;;;14.92;100.00;96688.22;5063819;28;20198;-59
2022/10/20 05:32:05;;;;;;;21.02;18.05;;;;;;;14.92;100.00;96677.56;5081643;28;20317;-60
2022/10/20 05:34:32;;;;;;;21.23;18.67;;;;;;;14.92;100.00;96672.22;5081533;28;20221;-59
2022/10/20 05:36:58;;;;;;;23.20;19.43;;;;;;;14.89;100.00;96661.09;5081323;28;20298;-59
2022/10/20 05:39:26;;;;;;;21.90;19.67;;;;;;;14.89;100.00;96666.41;5081399;28;20240;-60
2022/10/20 05:41:53;;;;;;;20.90;18.08;;;;;;;14.89;100.00;96656.59;5081655;28;20387;-59
2022/10/20 05:44:20;;;;;;;22.13;18.73;;;;;;;14.89;100.00;96656.59;5081494;28;20284;-59
2022/10/20 05:46:47;;;;;;;21.13;17.87;;;;;;;14.91;100.00;96665.22;5081163;28;20212;-60
2022/10/20 05:49:17;;;;;;;20.35;17.90;;;;;;;14.88;100.00;96659.41;5081311;28;20226;-59
2022/10/20 05:51:45;;;;;;;22.75;19.77;;;;;;;14.86;100.00;96646.28;5081545;28;20202;-58
2022/10/20 05:54:13;;;;;;;21.27;18.40;;;;;;;14.90;100.00;96665.41;5081981;28;20221;-59
2022/10/20 05:56:41;;;;;;;21.95;17.17;;;;;;;14.90;100.00;96668.09;5090023;28;20222;-58
2022/10/20 05:59:09;;;;;;;21.55;17.00;;;;;;;14.90;100.00;96663.59;5089927;28;20227;-59
2022/10/20 06:01:47;;;;;;;19.77;16.77;;;;;;;14.91;100.00;96675.88;5084781;28;20285;-59
2022/10/20 06:04:18;;;;;;;19.83;17.13;;;;;;;14.91;100.00;96680.41;5081699;28;20541;-58
2022/10/20 06:06:47;;;;;;;23.10;19.27;;;;;;;14.87;100.00;96679.91;5091218;28;20198;-59
2022/10/20 06:09:14;;;;;;;20.45;17.35;;;;;;;14.89;100.00;96688.53;5100190;28;20206;-59
2022/10/20 06:11:42;;;;;;;22.87;20.47;;;;;;;14.87;100.00;96697.72;5091306;28;20248;-59
2022/10/20 06:14:09;;;;;;;22.13;17.73;;;;;;;14.87;100.00;96687.06;5080341;28;20638;-58
2022/10/20 06:16:36;;;;;;;21.33;19.07;;;;;;;14.86;100.00;96688.88;5081717;28;20305;-59
2022/10/20 06:19:04;;;;;;;24.27;19.07;;;;;;;14.84;100.00;96682.06;5063736;28;20298;-58
2022/10/20 06:21:32;;;;;;;20.48;17.95;;;;;;;14.89;100.00;96698.38;5081087;28;20289;-58
2022/10/20 06:23:59;;;;;;;22.67;19.70;;;;;;;14.86;100.00;96694.22;5081210;28;20305;-59
2022/10/20 06:26:31;;;;;;;19.70;17.67;;;;;;;14.87;100.00;96698.53;5091696;28;20210;-59
2022/10/20 06:29:00;;;;;;;20.70;18.20;;;;;;;14.88;100.00;96694.88;5102732;28;20253;-59
2022/10/20 06:31:28;;;;;;;21.70;17.80;;;;;;;14.89;100.00;96699.19;5103209;28;20241;-59
2022/10/20 06:33:55;;;;;;;25.67;19.17;;;;;;;14.89;100.00;96701.84;5084350;28;20202;-58
2022/10/20 06:36:22;;;;;;;23.02;19.48;;;;;;;14.88;100.00;96710.84;5081096;28;20208;-59
2022/10/20 06:38:53;;;;;;;22.33;18.97;;;;;;;14.89;100.00;96707.19;5080958;28;20206;-59
2022/10/20 06:41:19;;;;;;;21.58;19.27;;;;;;;14.88;100.00;96716.16;5081425;28;20217;-59
2022/10/20 06:43:46;;;;;;;24.50;20.53;;;;;;;14.97;100.00;96710.84;5081700;28;20289;-59
2022/10/20 06:46:16;;;;;;;21.23;19.03;;;;;;;14.94;100.00;96709.34;5081421;28;20284;-58
2022/10/20 06:48:43;;;;;;;19.80;17.70;;;;;;;14.93;100.00;96699.69;5080383;28;20326;-58
2022/10/20 06:51:12;;;;;;;23.03;19.47;;;;;;;14.94;100.00;96707.53;5081260;28;20317;-59
2022/10/20 06:53:39;;;;;;;23.97;19.73;;;;;;;14.98;100.00;96701.84;5081853;28;20586;-58
2022/10/20 06:56:07;;;;;;;22.10;19.67;;;;;;;14.97;100.00;96708.19;5081902;28;20199;-59
2022/10/20 06:58:35;;;;;;;22.70;18.37;;;;;;;15.01;100.00;96701.53;5082799;28;20365;-58
2022/10/20 07:01:03;;;;;;;22.77;20.23;;;;;;;15.04;100.00;96707.34;5097835;28;20216;-59
2022/10/20 07:03:32;;;;;;;20.67;18.67;;;;;;;15.08;100.00;96713.16;5080734;28;20281;-59
2022/10/20 07:05:59;;;;;;;22.60;18.25;;;;;;;15.11;100.00;96700.34;5081214;28;20698;-59
2022/10/20 07:08:27;;;;;;;24.40;20.60;;;;;;;15.14;100.00;96715.13;5080269;28;20209;-58
2022/10/20 07:11:01;;;;;;;23.10;20.52;;;;;;;15.20;100.00;96717.94;5080846;28;20305;-59
2022/10/20 07:13:30;;;;;;;22.60;18.50;;;;;;;15.15;100.00;96717.66;5079952;28;20247;-59
2022/10/20 07:15:57;;;;;;;22.30;19.77;;;;;;;15.12;100.00;96725.16;5079979;28;20230;-58
2022/10/20 07:18:24;;;;;;;21.95;19.65;;;;;;;15.14;100.00;96726.63;5080141;28;20219;-59
2022/10/20 07:20:56;;;;;;;29.00;21.97;;;;;;;15.13;100.00;96732.09;5080235;28;20229;-59
2022/10/20 07:23:23;;;;;;;23.90;21.33;;;;;;;15.19;100.00;96736.78;5080062;28;20285;-59
2022/10/20 07:25:49;;;;;;;23.00;20.50;;;;;;;15.24;100.00;96735.25;5080273;28;20222;-58
2022/10/20 07:28:16;;;;;;;23.08;20.38;;;;;;;15.33;100.00;96734.25;5083917;28;20282;-59
2022/10/20 07:30:43;;;;;;;21.42;19.25;;;;;;;15.37;100.00;96740.88;5083689;28;20266;-59
2022/10/20 07:33:10;;;;;;;20.48;18.25;;;;;;;15.42;100.00;96740.38;5083820;28;20212;-59
2022/10/20 07:35:36;;;;;;;23.00;20.17;;;;;;;15.44;100.00;96752.53;5083587;28;20293;-59
2022/10/20 07:38:04;;;;;;;23.75;20.58;;;;;;;15.47;100.00;96764.69;5084224;28;20263;-59
2022/10/20 07:40:31;;;;;;;20.63;18.50;;;;;;;15.44;100.00;96762.38;5083464;28;20198;-59
2022/10/20 07:42:59;;;;;;;23.13;20.67;;;;;;;15.46;100.00;96771.03;5083747;28;20660;-59
2022/10/20 07:45:26;;;;;;;22.98;20.58;;;;;;;15.41;100.00;96768.88;5083582;28;20313;-59
2022/10/20 07:47:53;;;;;;;21.52;19.33;;;;;;;15.45;100.00;96753.38;5082805;28;20297;-58
2022/10/20 07:50:20;;;;;;;23.23;20.90;;;;;;;15.42;100.00;96753.72;5083061;28;20265;-59
2022/10/20 07:52:50;;;;;;;22.83;19.38;;;;;;;15.45;100.00;96758.69;5083341;28;20233;-59
2022/10/20 07:55:19;;;;;;;22.08;19.88;;;;;;;15.48;100.00;96763.69;5092160;28;20208;-60
2022/10/20 07:57:46;;;;;;;27.55;20.23;;;;;;;15.52;100.00;96765.03;5101778;28;20270;-59
2022/10/20 08:00:13;;;;;;;23.42;20.58;;;;;;;15.47;100.00;96772.69;5082829;28;20332;-59
2022/10/20 08:02:40;;;;;;;23.02;20.38;;;;;;;15.47;100.00;96780.69;5083171;28;20662;-59
2022/10/20 08:05:07;;;;;;;24.05;19.48;;;;;;;15.51;100.00;96787.38;5082650;28;20650;-59
2022/10/20 08:07:34;;;;;;;21.77;19.48;;;;;;;15.49;100.00;96781.38;5082730;28;20305;-59
2022/10/20 08:10:01;;;;;;;22.38;18.65;;;;;;;15.47;100.00;96788.69;5082824;28;20297;-59
2022/10/20 08:12:29;;;;;;;20.02;17.95;;;;;;;15.54;100.00;96787.03;5083115;28;20309;-59
2022/10/20 08:14:57;;;;;;;21.85;19.55;;;;;;;15.55;100.00;96785.22;5083171;28;20282;-59
2022/10/20 08:17:25;;;;;;;23.25;20.80;;;;;;;15.56;100.00;96805.50;5082704;28;20237;-58
2022/10/20 08:19:51;;;;;;;21.25;19.08;;;;;;;15.56;100.00;96822.34;5082839;28;20225;-58
2022/10/20 08:22:18;;;;;;;23.30;20.15;;;;;;;15.60;100.00;96821.00;5082573;28;20226;-59
2022/10/20 08:24:45;;;;;;;23.40;19.63;;;;;;;15.56;100.00;96819.69;5082717;28;20212;-59
2022/10/20 08:27:12;;;;;;;23.98;20.98;;;;;;;15.61;100.00;96832.50;5082883;28;20292;-58
2022/10/20 08:29:40;;;;;;;25.10;20.83;;;;;;;15.54;100.00;96826.19;5082636;28;20206;-58
2022/10/20 08:32:07;;;;;;;29.05;20.15;;;;;;;15.51;100.00;96830.03;5082629;28;20228;-59
2022/10/20 08:34:34;;;;;;;25.85;20.45;;;;;;;15.51;100.00;96819.38;5082661;28;20302;-59
2022/10/20 08:37:00;;;;;;;23.73;19.70;;;;;;;15.47;100.00;96827.84;5082166;28;20225;-58
2022/10/20 08:39:27;;;;;;;22.05;19.45;;;;;;;15.55;100.00;96825.19;5082523;28;20623;-58
2022/10/20 08:41:55;;;;;;;26.67;20.85;;;;;;;15.63;100.00;96818.00;5082552;28;20299;-59
2022/10/20 08:44:26;;;;;;;23.83;19.90;;;;;;;15.66;100.00;96827.50;5082316;28;20202;-59
2022/10/20 08:46:55;;;;;;;23.60;20.58;;;;;;;15.71;100.00;96823.31;5082556;28;20617;-58
2022/10/20 08:49:24;;;;;;;24.55;20.45;;;;;;;15.79;100.00;96825.97;5081820;28;20340;-59
2022/10/20 08:51:52;;;;;;;24.90;19.95;;;;;;;15.81;100.00;96815.94;5082379;28;20307;-58
2022/10/20 08:54:19;;;;;;;24.65;20.02;;;;;;;15.91;100.00;96818.41;5081925;28;20722;-59
2022/10/20 08:56:47;;;;;;;28.48;21.35;;;;;;;16.00;100.00;96827.22;5082515;28;20267;-59
2022/10/20 08:59:31;;;;;;;29.27;22.25;;;;;;;15.91;100.00;96819.25;5081882;28;20260;-59
2022/10/20 09:02:02;;;;;;;29.55;23.45;;;;;;;15.90;100.00;96812.28;5080553;28;20223;-59
2022/10/20 09:04:34;;;;;;;28.17;22.33;;;;;;;15.93;100.00;96806.59;5082169;28;20229;-59
2022/10/20 09:07:04;;;;;;;31.92;23.02;;;;;;;15.91;100.00;96805.06;5081475;28;20229;-59
2022/10/20 09:09:32;;;;;;;28.10;23.52;;;;;;;15.97;100.00;96822.25;5081922;28;20213;-59
2022/10/20 09:12:04;;;;;;;23.75;19.48;;;;;;;16.06;100.00;96821.19;5081222;28;20228;-59
2022/10/20 09:14:33;;;;;;;22.90;19.23;;;;;;;16.13;100.00;96824.84;5081832;28;20206;-59
2022/10/20 09:17:01;;;;;;;26.02;21.85;;;;;;;16.27;100.00;96824.13;5081779;28;20207;-58
2022/10/20 09:19:28;;;;;;;23.80;21.00;;;;;;;16.30;100.00;96815.75;5081838;28;20234;-59
2022/10/20 09:21:57;;;;;;;23.40;20.42;;;;;;;16.43;100.00;96816.03;5081682;28;20198;-58
2022/10/20 09:24:30;;;;;;;21.83;19.52;;;;;;;16.59;100.00;96813.31;5082577;28;20392;-59
2022/10/20 09:26:57;;;;;;;21.88;19.48;;;;;;;16.76;100.00;96812.19;5092622;28;20209;-59
2022/10/20 09:29:35;;;;;;;20.40;17.23;;;;;;;16.93;100.00;96805.72;5084752;28;20293;-59
2022/10/20 09:32:04;;;;;;;23.10;18.33;;;;;;;16.97;100.00;96805.38;5082348;28;20300;-58
2022/10/20 09:34:32;;;;;;;22.27;19.25;;;;;;;17.01;100.00;96806.66;5080886;28;20199;-58
2022/10/20 09:37:03;;;;;;;26.88;19.02;;;;;;;17.16;100.00;96815.56;5082734;28;20707;-58
2022/10/20 09:39:33;;;;;;;24.52;19.75;;;;;;;17.23;100.00;96813.84;5083969;28;20410;-59
2022/10/20 09:42:02;;;;;;;22.67;19.13;;;;;;;17.44;100.00;96819.31;5083271;28;20306;-59
2022/10/20 09:44:32;;;;;;;21.10;18.77;;;;;;;17.57;100.00;96827.59;5082578;28;20237;-58
2022/10/20 09:46:59;;;;;;;22.60;18.60;;;;;;;17.68;100.00;96824.47;5082535;28;20238;-59
2022/10/20 09:49:30;;;;;;;23.95;18.65;;;;;;;17.70;100.00;96826.97;5081966;28;20234;-59
2022/10/20 09:51:58;;;;;;;23.25;18.52;;;;;;;17.72;100.00;96817.75;5082038;28;20309;-58
2022/10/20 09:54:26;;;;;;;22.40;16.88;;;;;;;17.71;99.54;96821.41;5086120;28;20210;-59
2022/10/20 09:56:53;;;;;;;20.10;17.98;;;;;;;17.81;99.23;96827.34;5087441;28;20293;-59
2022/10/20 09:59:22;;;;;;;19.00;17.02;;;;;;;17.88;98.28;96827.44;5087832;28;20229;-59
2022/10/20 10:01:56;;;;;;;22.52;18.38;;;;;;;17.85;95.76;96822.47;5082521;28;20251;-59
2022/10/20 10:04:33;;;;;;;19.85;17.75;;;;;;;17.84;95.98;96824.31;5082399;28;20197;-59
2022/10/20 10:07:00;;;;;;;20.02;17.90;;;;;;;17.78;96.44;96822.34;5083284;28;20639;-59
2022/10/20 10:09:29;;;;;;;20.33;18.17;;;;;;;17.74;95.14;96805.03;5085477;28;20217;-59
2022/10/20 10:11:58;;;;;;;20.30;18.10;;;;;;;17.73;96.32;96813.22;5063800;28;20214;-59
2022/10/20 10:14:25;;;;;;;18.73;16.67;;;;;;;17.66;96.29;96807.78;5081466;28;20210;-59
2022/10/20 10:16:52;;;;;;;19.63;16.00;;;;;;;17.69;96.90;96811.94;5081552;28;20285;-58
2022/10/20 10:19:22;;;;;;;17.48;15.57;;;;;;;17.72;97.17;96820.41;5080816;28;20293;-58
2022/10/20 10:21:52;;;;;;;19.75;15.63;;;;;;;17.76;96.43;96821.72;5081381;28;20286;-58
2022/10/20 10:24:47;;;;;;;18.20;16.00;;;;;;;17.63;95.61;96813.50;5081502;28;20220;-60
2022/10/20 10:27:25;;;;;;;17.67;14.90;;;;;;;17.62;95.78;96806.47;5081849;28;20259;-60
2022/10/20 10:29:52;;;;;;;17.42;15.45;;;;;;;17.69;95.58;96807.41;5081790;28;20208;-59
2022/10/20 10:32:23;;;;;;;16.60;14.93;;;;;;;17.79;96.11;96802.63;5081201;28;20321;-59
2022/10/20 10:35:06;;;;;;;16.45;14.00;;;;;;;18.00;95.73;96801.03;5081103;28;20702;-59
2022/10/20 10:37:35;;;;;;;16.17;14.55;;;;;;;18.20;93.99;96786.09;5081011;28;20205;-59
2022/10/20 10:40:02;;;;;;;18.00;16.10;;;;;;;18.39;92.67;96772.09;5080968;28;20234;-58
2022/10/20 10:42:49;;;;;;;18.85;15.20;;;;;;;18.51;92.30;96759.91;5080657;28;20289;-58
2022/10/20 10:45:19;;;;;;;16.92;15.13;;;;;;;18.58;91.42;96750.09;5081033;28;20245;-59
2022/10/20 10:48:12;;;;;;;20.15;15.02;;;;;;;18.58;89.81;96738.56;5082143;28;20205;-59
2022/10/20 10:50:45;;;;;;;15.75;14.05;;;;;;;18.73;89.39;96737.50;5046422;28;20291;-59
2022/10/20 10:53:21;;;;;;;14.55;13.05;;;;;;;19.02;88.71;96731.16;5080782;28;20257;-59
2022/10/20 10:55:53;;;;;;;15.95;13.63;;;;;;;19.16;87.44;96718.69;5081242;28;20296;-58
2022/10/20 10:58:27;;;;;;;16.92;14.65;;;;;;;19.21;86.60;96713.56;5080010;28;20223;-59
2022/10/20 11:00:59;;;;;;;17.48;13.82;;;;;;;19.20;86.58;96696.63;5082294;28;20276;-59
2022/10/20 11:03:46;;;;;;;16.83;13.90;;;;;;;19.15;85.86;96695.59;5084467;28;20218;-59
2022/10/20 11:06:19;;;;;;;16.80;15.02;;;;;;;19.14;85.84;96685.88;5084567;28;20233;-59
2022/10/20 11:09:01;;;;;;;18.60;15.38;;;;;;;19.13;86.10;96678.88;5083532;28;20250;-59
2022/10/20 11:11:38;;;;;;;14.75;13.05;;;;;;;19.19;87.17;96678.09;5084371;28;20233;-58
2022/10/20 11:14:16;;;;;;;15.45;13.18;;;;;;;19.22;87.64;96683.06;5084952;28;20213;-59
2022/10/20 11:16:48;;;;;;;14.40;12.48;;;;;;;19.18;86.69;96703.22;5085221;28;20339;-58
2022/10/20 11:19:28;;;;;;;17.30;14.80;;;;;;;19.08;85.74;96702.75;5083836;28;20234;-58